createdAt,value
2023-12-30T00:00:23.495Z,5.00
2023-12-30T00:02:50.951Z,5.07
2023-12-30T00:05:18.075Z,5.10
2023-12-30T00:07:45.979Z,4.90
2023-12-30T00:10:13.053Z,5.43
2023-12-30T00:12:40.128Z,6.03
2023-12-30T00:15:07.920Z,5.83
2023-12-30T00:17:34.771Z,5.67
2023-12-30T00:20:02.060Z,6.27
2023-12-30T00:22:29.017Z,6.00
2023-12-30T00:24:55.899Z,6.20
2023-12-30T00:27:22.693Z,5.83
2023-12-30T00:29:51.151Z,5.83
2023-12-30T00:32:18.324Z,5.57
2023-12-30T00:34:45.424Z,6.77
2023-12-30T00:37:14.857Z,5.53
2023-12-30T00:39:43.001Z,6.37
2023-12-30T00:42:09.784Z,5.27
2023-12-30T00:44:36.981Z,5.93
2023-12-30T00:47:03.871Z,6.13
2023-12-30T00:49:31.085Z,5.67
2023-12-30T00:51:58.079Z,5.70
2023-12-30T00:54:26.008Z,6.10
2023-12-30T00:56:55.261Z,5.30
2023-12-30T00:59:21.985Z,5.20
2023-12-30T01:01:48.829Z,5.20
2023-12-30T01:04:15.764Z,5.47
2023-12-30T01:06:42.813Z,5.60
2023-12-30T01:09:09.658Z,6.17
2023-12-30T01:11:36.440Z,5.60
2023-12-30T01:14:03.347Z,5.73
2023-12-30T01:16:31.434Z,5.37
2023-12-30T01:18:58.639Z,5.33
2023-12-30T01:21:25.727Z,5.43
2023-12-30T01:29:31.522Z,5.90
2023-12-30T01:31:58.318Z,5.23
2023-12-30T01:34:25.276Z,6.80
2023-12-30T01:36:52.501Z,5.60
2023-12-30T01:39:19.478Z,5.73
2023-12-30T01:41:46.304Z,6.07
2023-12-30T01:44:13.110Z,6.00
2023-12-30T01:46:40.020Z,5.83
2023-12-30T01:49:07.203Z,5.37
2023-12-30T01:51:34.786Z,6.67
2023-12-30T01:54:04.275Z,6.07
2023-12-30T01:56:32.339Z,7.07
2023-12-30T01:59:00.694Z,6.10
2023-12-30T02:01:28.620Z,6.60
2023-12-30T02:03:56.624Z,6.27
2023-12-30T02:06:23.407Z,5.83
2023-12-30T02:08:50.473Z,5.27
2023-12-30T02:11:17.456Z,6.17
2023-12-30T02:13:45.919Z,5.47
2023-12-30T02:16:13.381Z,5.07
2023-12-30T02:18:40.652Z,5.47
2023-12-30T02:21:07.729Z,5.37
2023-12-30T02:23:34.693Z,5.63
2023-12-30T02:26:01.486Z,4.63
2023-12-30T02:28:28.624Z,5.03
2023-12-30T02:30:55.645Z,5.23
2023-12-30T02:33:23.863Z,5.60
2023-12-30T02:35:51.548Z,4.97
2023-12-30T02:38:18.483Z,4.93
2023-12-30T02:40:46.100Z,5.53
2023-12-30T02:43:13.081Z,5.33
2023-12-30T02:45:40.212Z,4.40
2023-12-30T02:48:07.440Z,5.20
2023-12-30T02:50:34.833Z,5.70
2023-12-30T02:53:02.162Z,5.20
2023-12-30T02:55:29.621Z,5.10
2023-12-30T02:57:56.507Z,5.10
2023-12-30T03:00:23.373Z,4.40
2023-12-30T03:02:50.234Z,4.50
2023-12-30T03:05:17.260Z,4.43
2023-12-30T03:07:44.565Z,3.90
2023-12-30T03:10:12.928Z,4.10
2023-12-30T03:12:39.770Z,4.20
2023-12-30T03:15:06.995Z,4.40
2023-12-30T03:17:34.053Z,4.10
2023-12-30T03:20:01.172Z,3.97
2023-12-30T03:22:28.220Z,3.60
2023-12-30T03:24:55.244Z,3.83
2023-12-30T03:27:22.130Z,3.80
2023-12-30T03:29:48.957Z,3.27
2023-12-30T03:32:15.780Z,3.40
2023-12-30T03:34:42.692Z,3.73
2023-12-30T03:37:09.556Z,4.07
2023-12-30T03:39:36.701Z,3.77
2023-12-30T03:42:03.602Z,3.37
2023-12-30T03:44:30.757Z,3.50
2023-12-30T03:46:57.809Z,3.80
2023-12-30T03:49:25.197Z,3.17
2023-12-30T03:51:52.314Z,3.53
2023-12-30T03:54:19.384Z,3.50
2023-12-30T03:56:48.278Z,3.70
2023-12-30T03:59:15.095Z,3.10
2023-12-30T04:01:44.169Z,3.10
2023-12-30T04:04:11.186Z,3.37
2023-12-30T04:06:38.781Z,3.13
2023-12-30T04:09:06.204Z,2.80
2023-12-30T04:11:33.350Z,2.87
2023-12-30T04:14:00.515Z,3.17
2023-12-30T04:16:27.597Z,3.37
2023-12-30T04:18:54.468Z,3.17
2023-12-30T04:21:21.644Z,3.10
2023-12-30T04:23:48.403Z,3.13
2023-12-30T04:26:18.254Z,3.77
2023-12-30T04:28:47.552Z,3.33
2023-12-30T04:31:14.653Z,2.93
2023-12-30T04:33:42.803Z,2.90
2023-12-30T04:36:09.644Z,3.73
2023-12-30T04:38:37.001Z,3.40
2023-12-30T04:41:03.903Z,2.73
2023-12-30T04:43:30.826Z,2.97
2023-12-30T04:45:57.801Z,3.10
2023-12-30T04:48:24.672Z,3.17
2023-12-30T04:50:51.500Z,3.00
2023-12-30T04:53:18.692Z,2.90
2023-12-30T04:55:45.495Z,3.40
2023-12-30T04:58:12.387Z,3.10
2023-12-30T05:00:39.386Z,3.43
2023-12-30T05:03:06.525Z,3.00
2023-12-30T05:05:33.503Z,2.60
2023-12-30T05:08:02.241Z,2.70
2023-12-30T05:10:30.334Z,3.00
2023-12-30T05:12:57.273Z,2.83
2023-12-30T05:15:24.433Z,2.63
2023-12-30T05:17:51.497Z,3.00
2023-12-30T05:20:18.726Z,2.70
2023-12-30T05:22:45.867Z,3.00
2023-12-30T05:25:13.266Z,2.70
2023-12-30T05:27:40.101Z,2.87
2023-12-30T05:30:11.019Z,2.63
2023-12-30T05:32:38.046Z,2.23
2023-12-30T05:35:05.962Z,2.20
2023-12-30T05:37:33.017Z,2.40
2023-12-30T05:40:00.385Z,2.10
2023-12-30T05:42:27.696Z,2.17
2023-12-30T05:44:54.638Z,2.30
2023-12-30T05:47:21.531Z,2.30
2023-12-30T05:49:48.467Z,2.50
2023-12-30T05:52:15.654Z,2.27
2023-12-30T05:54:42.779Z,2.30
2023-12-30T05:57:09.588Z,1.90
2023-12-30T05:59:36.732Z,2.37
2023-12-30T06:02:04.188Z,2.70
2023-12-30T06:04:31.166Z,2.13
2023-12-30T06:06:58.035Z,2.10
2023-12-30T06:09:24.973Z,2.40
2023-12-30T06:11:51.824Z,2.33
2023-12-30T06:14:18.703Z,2.00
2023-12-30T06:16:46.714Z,2.37
2023-12-30T06:19:17.652Z,1.53
2023-12-30T06:21:45.064Z,1.90
2023-12-30T06:24:13.716Z,1.47
2023-12-30T06:26:41.690Z,1.23
2023-12-30T06:29:09.603Z,1.03
2023-12-30T06:31:43.701Z,1.23
2023-12-30T06:34:11.181Z,2.50
2023-12-30T06:36:41.221Z,2.37
2023-12-30T06:39:09.851Z,2.37
2023-12-30T06:41:36.683Z,2.00
2023-12-30T06:44:03.491Z,3.50
2023-12-30T06:46:30.371Z,2.77
2023-12-30T06:48:57.260Z,1.50
2023-12-30T06:51:24.049Z,1.60
2023-12-30T06:53:50.886Z,2.10
2023-12-30T06:56:17.788Z,2.00
2023-12-30T06:58:46.591Z,1.97
2023-12-30T07:01:14.152Z,2.10
2023-12-30T07:03:41.278Z,2.27
2023-12-30T07:06:08.176Z,2.20
2023-12-30T07:08:34.938Z,2.40
2023-12-30T07:11:01.909Z,2.70
2023-12-30T07:13:28.790Z,2.10
2023-12-30T07:15:55.685Z,2.67
2023-12-30T07:18:23.083Z,2.50
2023-12-30T07:20:50.120Z,2.30
2023-12-30T07:23:16.986Z,1.87
2023-12-30T07:25:44.105Z,2.70
2023-12-30T07:28:10.911Z,1.70
2023-12-30T07:30:37.945Z,2.00
2023-12-30T07:33:05.296Z,1.63
2023-12-30T07:35:32.485Z,2.07
2023-12-30T07:37:59.316Z,1.70
2023-12-30T07:40:26.308Z,2.23
2023-12-30T07:42:53.336Z,1.63
2023-12-30T07:45:20.435Z,1.97
2023-12-30T07:47:47.460Z,1.50
2023-12-30T07:50:14.490Z,1.37
2023-12-30T07:52:41.340Z,1.53
2023-12-30T07:55:09.054Z,1.23
2023-12-30T07:57:36.792Z,1.50
2023-12-30T08:00:05.732Z,1.43
2023-12-30T08:02:33.105Z,1.70
2023-12-30T08:05:01.195Z,1.30
2023-12-30T08:07:28.761Z,1.30
2023-12-30T08:09:55.549Z,1.30
2023-12-30T08:12:22.444Z,1.60
2023-12-30T08:14:49.313Z,1.43
2023-12-30T08:17:16.218Z,1.43
2023-12-30T08:19:43.417Z,1.40
2023-12-30T08:22:10.676Z,1.43
2023-12-30T08:24:37.479Z,1.83
2023-12-30T08:27:04.753Z,1.83
2023-12-30T08:29:31.630Z,1.93
2023-12-30T08:31:58.557Z,1.43
2023-12-30T08:34:29.153Z,1.50
2023-12-30T08:36:56.445Z,1.40
2023-12-30T08:39:23.317Z,1.53
2023-12-30T08:41:50.359Z,1.40
2023-12-30T08:44:17.397Z,1.37
2023-12-30T08:46:44.639Z,1.63
2023-12-30T08:49:11.713Z,1.20
2023-12-30T08:51:38.785Z,1.50
2023-12-30T08:54:05.928Z,1.40
2023-12-30T08:56:34.463Z,2.07
2023-12-30T08:59:02.145Z,1.60
2023-12-30T09:01:29.243Z,1.50
2023-12-30T09:03:56.634Z,1.60
2023-12-30T09:06:23.673Z,1.50
2023-12-30T09:08:51.516Z,1.57
2023-12-30T09:11:20.041Z,2.10
2023-12-30T09:13:48.799Z,1.67
2023-12-30T09:16:16.095Z,2.53
2023-12-30T09:18:43.793Z,2.13
2023-12-30T09:21:10.903Z,2.27
2023-12-30T09:23:38.948Z,2.47
2023-12-30T09:26:06.305Z,2.23
2023-12-30T09:28:34.588Z,1.80
2023-12-30T09:31:02.803Z,2.17
2023-12-30T09:33:30.029Z,2.07
2023-12-30T09:35:57.448Z,1.73
2023-12-30T09:38:26.043Z,2.10
2023-12-30T09:40:54.816Z,1.93
2023-12-30T09:43:26.977Z,1.63
2023-12-30T09:45:55.754Z,1.80
2023-12-30T09:48:28.624Z,1.70
2023-12-30T09:50:56.803Z,1.63
2023-12-30T09:53:28.133Z,1.30
2023-12-30T09:55:56.179Z,1.57
2023-12-30T09:58:25.355Z,1.37
2023-12-30T10:00:52.286Z,1.37
2023-12-30T10:03:20.181Z,1.60
2023-12-30T10:05:47.706Z,1.70
2023-12-30T10:08:16.035Z,2.67
2023-12-30T10:10:44.329Z,2.00
2023-12-30T10:13:15.756Z,1.93
2023-12-30T10:15:43.611Z,1.53
2023-12-30T10:18:10.818Z,1.67
2023-12-30T10:20:43.181Z,1.40
2023-12-30T10:23:10.096Z,1.60
2023-12-30T10:25:37.842Z,1.67
2023-12-30T10:28:05.827Z,1.63
2023-12-30T10:30:33.134Z,1.80
2023-12-30T10:33:07.930Z,1.60
2023-12-30T10:35:35.240Z,1.60
2023-12-30T10:38:05.731Z,1.60
2023-12-30T10:40:32.627Z,1.50
2023-12-30T10:43:01.036Z,1.43
2023-12-30T10:45:28.285Z,1.40
2023-12-30T10:48:00.944Z,1.70
2023-12-30T10:50:28.886Z,1.70
2023-12-30T10:53:07.184Z,1.43
2023-12-30T10:55:35.314Z,1.57
2023-12-30T10:58:17.484Z,1.60
2023-12-30T11:00:47.548Z,1.73
2023-12-30T11:03:14.686Z,1.13
2023-12-30T11:06:04.894Z,1.63
2023-12-30T11:08:32.170Z,1.90
2023-12-30T11:11:03.405Z,1.93
2023-12-30T11:13:37.385Z,2.00
2023-12-30T11:16:14.069Z,2.10
2023-12-30T11:18:52.102Z,2.43
2023-12-30T11:21:44.263Z,2.80
2023-12-30T11:24:12.810Z,2.10
2023-12-30T11:26:43.875Z,1.97
2023-12-30T11:29:18.334Z,1.80
2023-12-30T11:31:47.055Z,1.80
2023-12-30T11:34:16.747Z,1.00
2023-12-30T11:36:44.435Z,1.17
2023-12-30T11:39:15.152Z,1.73
2023-12-30T11:41:42.074Z,1.20
2023-12-30T11:44:09.133Z,1.07
2023-12-30T11:46:36.124Z,1.13
2023-12-30T11:49:03.024Z,1.10
2023-12-30T11:51:31.509Z,0.90
2023-12-30T11:53:58.314Z,1.23
2023-12-30T11:56:25.325Z,1.37
2023-12-30T11:58:52.947Z,1.30
2023-12-30T12:01:20.330Z,1.20
2023-12-30T12:03:47.223Z,2.17
2023-12-30T12:06:15.426Z,1.40
2023-12-30T12:08:44.244Z,1.50
2023-12-30T12:11:11.245Z,2.20
2023-12-30T12:13:38.279Z,1.87
2023-12-30T12:16:05.734Z,2.03
2023-12-30T12:18:33.636Z,2.10
2023-12-30T12:21:04.472Z,2.07
2023-12-30T12:23:32.428Z,2.80
2023-12-30T12:26:01.586Z,3.03
2023-12-30T12:28:28.494Z,3.10
2023-12-30T12:30:55.479Z,3.37
2023-12-30T12:33:22.470Z,3.10
2023-12-30T12:35:49.607Z,3.40
2023-12-30T12:38:16.420Z,3.57
2023-12-30T12:40:45.483Z,3.43
2023-12-30T12:43:12.935Z,3.77
2023-12-30T12:45:40.044Z,4.00
2023-12-30T12:48:08.032Z,4.67
2023-12-30T12:50:35.369Z,4.03
2023-12-30T12:53:02.640Z,4.10
2023-12-30T12:55:29.865Z,4.10
2023-12-30T12:57:57.425Z,3.77
2023-12-30T13:00:26.325Z,3.43
2023-12-30T13:02:53.744Z,3.30
2023-12-30T13:05:23.536Z,3.20
2023-12-30T13:07:50.691Z,3.87
2023-12-30T13:10:32.975Z,3.60
2023-12-30T13:13:00.359Z,3.27
2023-12-30T13:15:27.449Z,3.70
2023-12-30T13:18:00.238Z,5.13
2023-12-30T13:20:28.603Z,3.70
2023-12-30T13:22:58.932Z,3.17
2023-12-30T13:25:31.832Z,3.70
2023-12-30T13:27:59.542Z,2.83
2023-12-30T13:30:26.981Z,3.07
2023-12-30T13:33:02.613Z,2.90
2023-12-30T13:35:38.372Z,2.47
2023-12-30T13:38:13.697Z,2.50
2023-12-30T13:40:45.657Z,1.87
2023-12-30T13:43:13.323Z,3.00
2023-12-30T13:45:45.188Z,2.90
2023-12-30T13:48:21.726Z,2.37
2023-12-30T13:50:56.076Z,2.30
2023-12-30T13:53:24.920Z,2.20
2023-12-30T13:55:53.645Z,2.10
2023-12-30T13:58:20.683Z,2.57
2023-12-30T14:00:48.704Z,3.07
2023-12-30T14:03:16.712Z,3.13
2023-12-30T14:05:47.141Z,3.53
2023-12-30T14:08:32.691Z,3.63
2023-12-30T14:11:06.677Z,4.13
2023-12-30T14:13:33.496Z,4.87
2023-12-30T14:16:00.526Z,5.30
2023-12-30T14:18:28.301Z,5.43
2023-12-30T14:20:55.181Z,5.53
2023-12-30T14:23:21.955Z,4.57
2023-12-30T14:25:49.048Z,3.87
2023-12-30T14:28:16.193Z,4.13
2023-12-30T14:30:44.138Z,4.80
2023-12-30T14:33:11.096Z,6.33
2023-12-30T14:35:37.909Z,5.30
2023-12-30T14:38:05.972Z,5.27
2023-12-30T14:40:33.002Z,5.87
2023-12-30T14:42:59.928Z,7.10
2023-12-30T14:45:26.836Z,7.50
2023-12-30T14:47:53.721Z,6.90
2023-12-30T14:50:20.820Z,7.43
2023-12-30T14:52:47.612Z,7.13
2023-12-30T14:55:14.835Z,6.73
2023-12-30T14:57:42.036Z,7.27
2023-12-30T15:00:16.337Z,6.17
2023-12-30T15:02:44.538Z,7.47
2023-12-30T15:05:15.290Z,6.80
2023-12-30T15:07:43.527Z,6.47
2023-12-30T15:10:12.093Z,4.17
2023-12-30T15:12:39.714Z,5.33
2023-12-30T15:15:08.128Z,7.27
2023-12-30T15:17:35.272Z,4.73
2023-12-30T15:20:02.374Z,5.07
2023-12-30T15:22:30.678Z,4.50
2023-12-30T15:24:58.177Z,5.07
2023-12-30T15:27:25.227Z,5.03
2023-12-30T15:29:52.061Z,5.73
2023-12-30T15:32:19.144Z,6.83
2023-12-30T15:34:46.373Z,5.97
2023-12-30T15:37:13.570Z,5.53
2023-12-30T15:39:40.524Z,6.27
2023-12-30T15:42:07.744Z,5.50
2023-12-30T15:44:38.085Z,5.10
2023-12-30T15:47:11.633Z,4.93
2023-12-30T15:49:41.124Z,4.93
2023-12-30T15:52:10.647Z,4.93
2023-12-30T15:54:40.863Z,5.27
2023-12-30T15:57:07.651Z,4.97
2023-12-30T15:59:34.978Z,4.20
2023-12-30T16:02:02.708Z,4.40
2023-12-30T16:04:29.616Z,4.27
2023-12-30T16:06:57.490Z,3.97
2023-12-30T16:09:24.374Z,4.00
2023-12-30T16:11:51.262Z,4.30
2023-12-30T16:14:18.215Z,4.03
2023-12-30T16:16:47.883Z,4.70
2023-12-30T16:19:17.114Z,4.00
2023-12-30T16:21:46.412Z,4.13
2023-12-30T16:24:14.628Z,4.13
2023-12-30T16:26:41.941Z,3.67
2023-12-30T16:29:09.370Z,3.77
2023-12-30T16:31:36.422Z,4.30
2023-12-30T16:34:03.902Z,5.07
2023-12-30T16:36:31.662Z,3.87
2023-12-30T16:38:58.575Z,3.60
2023-12-30T16:41:25.750Z,3.70
2023-12-30T16:43:52.708Z,4.00
2023-12-30T16:46:20.257Z,4.17
2023-12-30T16:48:47.398Z,4.47
2023-12-30T16:51:14.608Z,3.23
2023-12-30T16:53:42.670Z,3.40
2023-12-30T16:56:10.147Z,3.73
2023-12-30T16:58:37.227Z,4.37
2023-12-30T17:01:05.542Z,3.87
2023-12-30T17:03:32.696Z,5.57
2023-12-30T17:06:00.049Z,3.90
2023-12-30T17:08:26.913Z,3.90
2023-12-30T17:10:53.682Z,3.57
2023-12-30T17:13:23.289Z,4.40
2023-12-30T17:15:57.843Z,4.20
2023-12-30T17:18:24.765Z,4.30
2023-12-30T17:20:51.521Z,4.73
2023-12-30T17:23:18.252Z,4.13
2023-12-30T17:25:45.177Z,4.57
2023-12-30T17:28:12.499Z,3.63
2023-12-30T17:30:39.608Z,3.97
2023-12-30T17:33:06.962Z,4.37
2023-12-30T17:35:34.196Z,4.53
2023-12-30T17:38:01.691Z,3.73
2023-12-30T17:40:28.795Z,4.30
2023-12-30T17:42:55.554Z,4.10
2023-12-30T17:45:22.450Z,5.03
2023-12-30T17:47:50.834Z,4.60
2023-12-30T17:50:18.117Z,4.07
2023-12-30T17:52:44.929Z,4.13
2023-12-30T17:55:12.234Z,4.43
2023-12-30T17:57:39.108Z,5.67
2023-12-30T18:00:07.882Z,5.43
2023-12-30T18:02:35.493Z,5.20
2023-12-30T18:05:02.438Z,4.33
2023-12-30T18:07:29.314Z,4.53
2023-12-30T18:09:56.130Z,5.30
2023-12-30T18:12:22.934Z,4.63
2023-12-30T18:14:49.702Z,4.37
2023-12-30T18:17:16.485Z,5.00
2023-12-30T18:19:43.403Z,4.03
2023-12-30T18:22:10.398Z,3.73
2023-12-30T18:24:37.226Z,4.20
2023-12-30T18:27:04.236Z,4.27
2023-12-30T18:29:30.986Z,3.97
2023-12-30T18:31:57.857Z,5.00
2023-12-30T18:34:25.103Z,4.80
2023-12-30T18:36:53.470Z,4.03
2023-12-30T18:39:20.782Z,5.03
2023-12-30T18:41:47.595Z,4.27
2023-12-30T18:44:14.665Z,4.20
2023-12-30T18:46:41.563Z,4.07
2023-12-30T18:49:08.605Z,3.93
2023-12-30T18:51:35.797Z,4.77
2023-12-30T18:54:02.534Z,3.90
2023-12-30T18:56:31.272Z,3.50
2023-12-30T18:58:58.448Z,3.77
2023-12-30T19:01:26.103Z,3.43
2023-12-30T19:03:56.932Z,4.83
2023-12-30T19:06:24.451Z,4.43
2023-12-30T19:08:51.548Z,3.37
2023-12-30T19:11:20.128Z,4.13
2023-12-30T19:13:48.819Z,3.60
2023-12-30T19:16:16.018Z,4.60
2023-12-30T19:18:43.478Z,4.03
2023-12-30T19:21:10.405Z,4.20
2023-12-30T19:23:37.291Z,3.67
2023-12-30T19:26:04.414Z,3.77
2023-12-30T19:28:31.659Z,3.10
2023-12-30T19:30:58.680Z,3.40
2023-12-30T19:33:25.937Z,3.67
2023-12-30T19:35:53.130Z,4.03
2023-12-30T19:38:20.475Z,3.33
2023-12-30T19:40:49.340Z,4.00
2023-12-30T19:43:16.398Z,5.33
2023-12-30T19:45:43.251Z,6.90
2023-12-30T19:48:10.076Z,4.83
2023-12-30T19:50:38.081Z,6.00
2023-12-30T19:53:05.324Z,4.80
2023-12-30T19:55:32.273Z,4.87
2023-12-30T19:57:59.414Z,4.20
2023-12-30T20:00:26.256Z,4.97
2023-12-30T20:02:53.024Z,3.83
2023-12-30T20:05:19.972Z,3.57
2023-12-30T20:07:47.216Z,3.23
2023-12-30T20:10:14.160Z,3.67
2023-12-30T20:12:41.284Z,3.53
2023-12-30T20:15:09.213Z,4.07
2023-12-30T20:17:39.289Z,4.63
2023-12-30T20:20:07.197Z,5.10
2023-12-30T20:22:34.757Z,4.10
2023-12-30T20:25:02.000Z,4.57
2023-12-30T20:27:29.211Z,4.40
2023-12-30T20:29:56.203Z,4.30
2023-12-30T20:32:23.311Z,4.63
2023-12-30T20:34:51.369Z,4.43
2023-12-30T20:37:22.737Z,4.13
2023-12-30T20:39:50.024Z,4.10
2023-12-30T20:42:18.983Z,3.67
2023-12-30T20:44:45.958Z,3.90
2023-12-30T20:47:13.737Z,3.47
2023-12-30T20:49:45.034Z,4.03
2023-12-30T20:52:11.961Z,4.33
2023-12-30T20:54:42.081Z,3.90
2023-12-30T20:57:09.134Z,4.53
2023-12-30T20:59:35.931Z,3.23
2023-12-30T21:02:03.411Z,4.57
2023-12-30T21:04:32.411Z,4.43
2023-12-30T21:06:59.179Z,4.20
2023-12-30T21:09:26.047Z,4.60
2023-12-30T21:11:52.809Z,5.43
2023-12-30T21:14:19.618Z,5.40
2023-12-30T21:16:46.905Z,5.57
2023-12-30T21:19:13.827Z,3.43
2023-12-30T21:21:40.860Z,4.57
2023-12-30T21:24:07.907Z,4.80
2023-12-30T21:26:34.764Z,4.57
2023-12-30T21:29:01.534Z,3.23
2023-12-30T21:31:29.376Z,3.77
2023-12-30T21:33:56.403Z,3.37
2023-12-30T21:36:23.872Z,4.07
2023-12-30T21:38:50.632Z,3.87
2023-12-30T21:41:24.331Z,4.53
2023-12-30T21:43:51.393Z,4.00
2023-12-30T21:46:18.765Z,4.73
2023-12-30T21:48:45.728Z,4.90
2023-12-30T21:51:14.617Z,5.60
2023-12-30T21:53:45.213Z,4.20
2023-12-30T21:56:12.221Z,4.90
2023-12-30T21:58:39.029Z,4.27
2023-12-30T22:01:06.247Z,4.23
2023-12-30T22:03:33.100Z,5.17
2023-12-30T22:05:59.921Z,4.47
2023-12-30T22:08:26.677Z,5.80
2023-12-30T22:10:53.404Z,5.00
2023-12-30T22:13:20.394Z,4.73
2023-12-30T22:15:47.127Z,5.77
2023-12-30T22:18:14.404Z,5.73
2023-12-30T22:20:41.241Z,5.67
2023-12-30T22:23:12.405Z,5.70
2023-12-30T22:25:42.962Z,5.23
2023-12-30T22:28:09.866Z,5.27
2023-12-30T22:30:37.003Z,5.63
2023-12-30T22:33:04.531Z,6.20
2023-12-30T22:35:31.959Z,5.97
2023-12-30T22:37:58.861Z,5.73
2023-12-30T22:40:25.895Z,6.13
2023-12-30T22:42:53.019Z,5.77
2023-12-30T22:45:20.552Z,6.10
2023-12-30T22:47:47.658Z,6.30
2023-12-30T22:50:14.579Z,6.50
2023-12-30T22:52:42.130Z,6.70
2023-12-30T22:55:09.186Z,6.73
2023-12-30T22:57:36.292Z,5.97
2023-12-30T23:00:05.533Z,6.70
2023-12-30T23:02:32.328Z,8.23
2023-12-30T23:05:00.222Z,7.50
2023-12-30T23:07:27.290Z,7.23
2023-12-30T23:09:54.124Z,7.93
2023-12-30T23:12:20.972Z,6.73
2023-12-30T23:14:47.784Z,6.30
2023-12-30T23:17:16.109Z,6.27
2023-12-30T23:19:44.426Z,7.30
2023-12-30T23:22:11.443Z,5.93
2023-12-30T23:24:39.140Z,6.67
2023-12-30T23:27:06.425Z,7.50
2023-12-30T23:29:33.688Z,7.90
2023-12-30T23:32:00.496Z,7.07
2023-12-30T23:34:38.968Z,6.73
2023-12-30T23:37:12.855Z,5.70
2023-12-30T23:39:39.908Z,5.33
2023-12-30T23:42:08.076Z,6.10
2023-12-30T23:44:35.031Z,5.40
2023-12-30T23:47:02.149Z,5.43
2023-12-30T23:49:29.037Z,4.20
2023-12-30T23:51:56.364Z,4.20
2023-12-30T23:54:23.182Z,4.87
2023-12-30T23:56:50.290Z,4.77
2023-12-30T23:59:18.584Z,4.97
